aviador You're here:

CYPO Decoded Metar

in
Report Time2018-05-26 07:00:00
UTC Time2018-05-26 08:01:50
Flight Rules mvfr MVFR
Wind120° at 09 Gusting to 15 kt
W.Decomp.*RWY 11: 8.9 kt HW 1.6 kt RCW
W.Rank120° ranks 36
Current wind is above 120° avg. (6.0)
Visibility9999 m
Phenomena:N/A
Clouds:Overcast 010 Hf
Expected CloudBase > 1,200 ft AGL from Temp-Dew spread
Ceiling1,000 ft
Temp-2°C
Dew Point-5°C (80% RH)
AAT-7.8°C
QNH1019 hPa
Raw Report
METAR CYPO 260700Z AUTO 12009G15KT 9SM OVC010 M02/M05 A3008 RMK
SLP189=

Extra information for CYPO:More info

Social comments